Decoded Metar for PAPO (POINT HOPE in AK, USA) (IATA:PHO) | Meteo·Mobile Aviation Weather
aviador You're here:

PAPO Decoded Metar

POINT HOPE in AK, USA
Report Time2019-02-17 05:23:00
UTC Time2019-02-17 08:13:01
Flight Rules Old
Wind160° at 26 Gusting to 30 kt
W.Decomp.*RWY 19: 19.6 kt HW 17.1 kt LCW
W.Rank160° ranks 6
Current wind is above 160° avg. (14.3)
Visibility6437 m
Phenomena:Mist
Clouds:Overcast 009 Hf
Ceiling900 ft
Temp-4°C (ISA -19)
Dew Point-4°C (100% RH)
AAT-15.9°C
QNH1007 hPa
Density Alt-2,051 ft
Elevation20 ft
Report Wrong Elevation
Raw Report
PAPO 170523Z AUTO 16026G30KT 4SM UP BR OVC009 M04/M04 A2974 RMK
AO2 PK WND 16033/0510 P0000 FZRANO=

Extra information for PAPO:More info

Metar Taf Metar & Taf Last 4 Metars F.Rules Stats Wind Profile Meteogram Temp Stats Airport Information Weather charts Add Link Nearby VenuesMetar ALERT Operation Metar Decoded Social comments

AIRNAV info for PAPO